createdAt,value
2023-01-28T00:01:36.834Z,32.58
2023-01-28T00:04:05.174Z,35.13
2023-01-28T00:06:33.577Z,30.75
2023-01-28T00:09:02.289Z,31.67
2023-01-28T00:11:30.568Z,33.20
2023-01-28T00:13:58.819Z,33.38
2023-01-28T00:16:30.567Z,32.20
2023-01-28T00:18:58.901Z,32.55
2023-01-28T00:21:27.174Z,32.47
2023-01-28T00:23:57.150Z,32.75
2023-01-28T00:26:26.068Z,33.80
2023-01-28T00:28:54.295Z,31.55
2023-01-28T00:31:25.083Z,33.22
2023-01-28T00:33:55.529Z,32.10
2023-01-28T00:36:25.735Z,34.28
2023-01-28T00:38:54.938Z,33.60
2023-01-28T00:41:25.505Z,32.53
2023-01-28T00:43:54.444Z,35.03
2023-01-28T00:46:23.919Z,32.60
2023-01-28T00:48:52.233Z,32.75
2023-01-28T00:51:22.924Z,35.35
2023-01-28T00:53:51.527Z,34.90
2023-01-28T00:56:20.835Z,33.67
2023-01-28T00:58:49.693Z,33.67
2023-01-28T01:01:20.163Z,34.35
2023-01-28T01:03:54.630Z,33.40
2023-01-28T01:06:25.231Z,33.75
2023-01-28T01:08:53.572Z,32.88
2023-01-28T01:11:21.885Z,34.17
2023-01-28T01:13:55.024Z,32.25
2023-01-28T01:16:28.918Z,33.05
2023-01-28T01:18:57.969Z,35.08
2023-01-28T01:21:30.043Z,36.17
2023-01-28T01:23:58.858Z,33.83
2023-01-28T01:26:28.022Z,32.03
2023-01-28T01:28:56.379Z,30.58
2023-01-28T01:31:24.929Z,30.48
2023-01-28T01:33:54.137Z,31.13
2023-01-28T01:36:23.798Z,30.10
2023-01-28T01:38:56.528Z,30.83
2023-01-28T01:41:28.861Z,29.35
2023-01-28T01:43:59.476Z,30.02
2023-01-28T01:46:35.049Z,27.02
2023-01-28T01:49:12.987Z,26.42
2023-01-28T01:51:42.545Z,26.88
2023-01-28T01:54:12.770Z,28.20
2023-01-28T01:56:44.234Z,26.92
2023-01-28T01:59:15.362Z,26.08
2023-01-28T02:01:45.797Z,25.70
2023-01-28T02:04:21.273Z,27.02
2023-01-28T02:06:49.720Z,25.63
2023-01-28T02:09:27.557Z,24.77
2023-01-28T02:11:59.947Z,23.88
2023-01-28T02:14:32.011Z,24.38
2023-01-28T02:17:01.795Z,23.80
2023-01-28T02:19:37.900Z,26.17
2023-01-28T02:22:21.160Z,30.13
2023-01-28T02:25:25.909Z,30.15
2023-01-28T02:28:11.069Z,28.00
2023-01-28T02:30:43.725Z,27.73
2023-01-28T02:33:18.531Z,30.05
2023-01-28T02:35:51.041Z,31.05
2023-01-28T02:38:25.448Z,32.22
2023-01-28T02:41:05.808Z,28.52
2023-01-28T02:43:37.572Z,29.60
2023-01-28T02:46:33.368Z,27.38
2023-01-28T02:49:03.172Z,29.48
2023-01-28T02:51:42.638Z,28.95
2023-01-28T02:54:16.247Z,30.73
2023-01-28T02:59:34.403Z,26.58
2023-01-28T03:02:10.887Z,27.65
2023-01-28T03:04:46.507Z,27.17
2023-01-28T03:07:17.449Z,28.63
2023-01-28T03:09:47.578Z,26.02
2023-01-28T03:12:37.495Z,22.98
2023-01-28T03:15:29.642Z,23.55
2023-01-28T03:18:20.823Z,25.45
2023-01-28T03:21:13.773Z,23.58
2023-01-28T03:24:06.909Z,21.35
2023-01-28T03:26:57.479Z,22.02
2023-01-28T03:29:44.643Z,20.90
2023-01-28T03:32:32.671Z,21.85
2023-01-28T03:35:18.480Z,22.65
2023-01-28T03:37:47.591Z,22.75
2023-01-28T03:40:18.953Z,21.45
2023-01-28T03:42:47.928Z,22.55
2023-01-28T03:45:16.859Z,20.60
2023-01-28T03:47:46.795Z,22.60
2023-01-28T03:50:15.198Z,21.77
2023-01-28T03:52:43.683Z,19.55
2023-01-28T03:55:15.119Z,21.10
2023-01-28T03:57:45.151Z,22.85
2023-01-28T04:00:17.368Z,23.02
2023-01-28T04:02:47.302Z,21.10
2023-01-28T04:05:19.883Z,23.15
2023-01-28T04:07:48.463Z,21.75
2023-01-28T04:10:17.392Z,19.55
2023-01-28T04:12:45.641Z,24.77
2023-01-28T04:15:17.020Z,21.15
2023-01-28T04:17:50.460Z,21.88
2023-01-28T04:20:19.328Z,24.55
2023-01-28T04:22:47.573Z,22.45
2023-01-28T04:25:16.493Z,22.33
2023-01-28T04:27:45.860Z,25.02
2023-01-28T04:30:14.218Z,22.10
2023-01-28T04:32:42.547Z,23.20
2023-01-28T04:35:13.034Z,25.45
2023-01-28T04:37:42.791Z,24.52
2023-01-28T04:40:12.812Z,23.00
2023-01-28T04:42:41.540Z,24.52
2023-01-28T04:45:10.625Z,25.10
2023-01-28T04:47:39.007Z,25.92
2023-01-28T04:50:07.858Z,26.17
2023-01-28T04:52:37.734Z,24.67
2023-01-28T04:55:06.747Z,24.98
2023-01-28T04:57:35.185Z,24.70
2023-01-28T05:00:04.562Z,24.67
2023-01-28T05:02:32.841Z,24.55
2023-01-28T05:05:05.083Z,26.23
2023-01-28T05:07:33.330Z,24.52
2023-01-28T05:10:03.040Z,24.38
2023-01-28T05:12:33.154Z,25.80
2023-01-28T05:15:01.802Z,23.08
2023-01-28T05:17:30.446Z,25.83
2023-01-28T05:19:59.073Z,25.50
2023-01-28T05:22:27.584Z,25.35
2023-01-28T05:24:55.814Z,24.23
2023-01-28T05:27:25.820Z,25.50
2023-01-28T05:29:54.058Z,23.63
2023-01-28T05:32:22.509Z,27.80
2023-01-28T05:34:50.857Z,24.52
2023-01-28T05:37:19.242Z,24.23
2023-01-28T05:39:47.479Z,25.48
2023-01-28T05:42:16.526Z,23.88
2023-01-28T05:44:46.177Z,24.02
2023-01-28T05:47:14.421Z,23.17
2023-01-28T05:49:42.920Z,24.10
2023-01-28T05:52:11.390Z,23.35
2023-01-28T05:54:39.704Z,25.13
2023-01-28T05:57:08.099Z,25.25
2023-01-28T05:59:36.578Z,23.63
2023-01-28T06:02:06.235Z,23.45
2023-01-28T06:04:34.824Z,23.60
2023-01-28T06:07:03.352Z,24.60
2023-01-28T06:09:31.588Z,25.35
2023-01-28T06:12:00.116Z,23.95
2023-01-28T06:14:28.408Z,24.83
2023-01-28T06:16:56.594Z,22.92
2023-01-28T06:19:26.519Z,24.08
2023-01-28T06:21:54.939Z,25.05
2023-01-28T06:24:23.264Z,25.05
2023-01-28T06:26:51.526Z,22.42
2023-01-28T06:29:20.517Z,26.80
2023-01-28T06:31:48.759Z,25.60
2023-01-28T06:34:17.265Z,25.58
2023-01-28T06:36:47.210Z,23.35
2023-01-28T06:39:15.451Z,25.75
2023-01-28T06:41:44.117Z,26.17
2023-01-28T06:44:12.647Z,23.35
2023-01-28T06:46:40.947Z,24.10
2023-01-28T06:49:09.667Z,24.52
2023-01-28T06:51:37.887Z,23.92
2023-01-28T06:54:07.935Z,25.27
2023-01-28T06:56:36.635Z,27.10
2023-01-28T06:59:05.334Z,24.73
2023-01-28T07:01:33.584Z,27.55
2023-01-28T07:04:02.280Z,23.05
2023-01-28T07:06:30.620Z,23.15
2023-01-28T07:08:58.832Z,26.58
2023-01-28T07:11:29.860Z,27.20
2023-01-28T07:13:58.063Z,26.42
2023-01-28T07:16:26.377Z,25.30
2023-01-28T07:18:55.057Z,25.52
2023-01-28T07:21:23.263Z,24.38
2023-01-28T07:23:51.671Z,23.00
2023-01-28T07:26:21.042Z,22.92
2023-01-28T07:28:50.715Z,24.08
2023-01-28T07:31:18.968Z,22.83
2023-01-28T07:33:47.505Z,23.55
2023-01-28T07:36:15.724Z,22.40
2023-01-28T07:38:44.169Z,23.70
2023-01-28T07:41:12.763Z,23.40
2023-01-28T07:43:41.016Z,25.52
2023-01-28T07:46:10.839Z,24.52
2023-01-28T07:48:39.416Z,24.77
2023-01-28T07:51:07.608Z,23.70
2023-01-28T07:53:35.951Z,27.17
2023-01-28T07:56:05.596Z,27.92
2023-01-28T07:58:34.752Z,27.65
2023-01-28T08:01:03.578Z,28.67
2023-01-28T08:03:33.533Z,28.95
2023-01-28T08:06:01.697Z,33.15
2023-01-28T08:08:29.962Z,29.67
2023-01-28T08:10:58.273Z,31.63
2023-01-28T08:13:27.093Z,30.67
2023-01-28T08:15:57.534Z,28.90
2023-01-28T08:18:26.282Z,29.63
2023-01-28T08:20:58.302Z,27.75
2023-01-28T08:23:28.243Z,28.15
2023-01-28T08:25:58.941Z,27.13
2023-01-28T08:28:27.734Z,27.92
2023-01-28T08:30:56.107Z,25.77
2023-01-28T08:33:24.509Z,27.90
2023-01-28T08:35:52.662Z,27.55
2023-01-28T08:38:22.567Z,27.88
2023-01-28T08:40:54.102Z,26.08
2023-01-28T08:43:22.504Z,25.73
2023-01-28T08:45:50.907Z,25.75
2023-01-28T08:48:20.405Z,25.58
2023-01-28T08:50:48.693Z,24.13
2023-01-28T08:53:19.135Z,27.25
2023-01-28T08:55:49.267Z,25.83
2023-01-28T08:58:19.153Z,25.80
2023-01-28T09:00:48.471Z,24.52
2023-01-28T09:03:17.330Z,26.95
2023-01-28T09:05:45.896Z,27.00
2023-01-28T09:08:16.380Z,26.27
2023-01-28T09:10:45.143Z,25.83
2023-01-28T09:13:16.793Z,31.35
2023-01-28T09:15:45.561Z,30.85
2023-01-28T09:18:14.026Z,32.65
2023-01-28T09:20:42.847Z,29.17
2023-01-28T09:23:12.300Z,27.88
2023-01-28T09:25:40.541Z,27.50
2023-01-28T09:28:09.143Z,26.45
2023-01-28T09:30:39.900Z,26.27
2023-01-28T09:33:09.076Z,25.60
2023-01-28T09:35:37.865Z,28.40
2023-01-28T09:38:06.290Z,26.15
2023-01-28T09:40:38.349Z,28.05
2023-01-28T09:43:24.528Z,26.73
2023-01-28T09:45:56.834Z,28.05
2023-01-28T09:48:31.045Z,27.27
2023-01-28T09:50:59.692Z,29.05
2023-01-28T09:53:35.205Z,26.90
2023-01-28T09:56:05.374Z,27.30
2023-01-28T09:58:34.003Z,28.90
2023-01-28T10:01:11.684Z,28.30
2023-01-28T10:03:50.183Z,28.63
2023-01-28T10:06:29.645Z,28.65
2023-01-28T10:09:22.513Z,22.50
2023-01-28T10:12:06.871Z,22.35
2023-01-28T10:14:49.261Z,21.60
2023-01-28T10:17:27.825Z,19.05
2023-01-28T10:20:01.082Z,20.13
2023-01-28T10:22:36.896Z,20.80
2023-01-28T10:25:09.080Z,20.45
2023-01-28T10:27:38.691Z,20.60
2023-01-28T10:30:19.828Z,24.73
2023-01-28T10:32:54.443Z,24.90
2023-01-28T10:35:22.962Z,23.10
2023-01-28T10:37:54.398Z,23.75
2023-01-28T10:40:22.631Z,23.83
2023-01-28T10:42:50.896Z,23.65
2023-01-28T10:45:22.658Z,26.13
2023-01-28T10:47:57.723Z,24.30
2023-01-28T10:50:27.719Z,26.65
2023-01-28T10:52:57.239Z,26.48
2023-01-28T10:55:30.627Z,27.40
2023-01-28T10:57:59.693Z,27.15
2023-01-28T11:00:30.908Z,27.95
2023-01-28T11:03:01.367Z,29.35
2023-01-28T11:05:30.714Z,29.02
2023-01-28T11:08:07.739Z,27.85
2023-01-28T11:10:38.298Z,27.00
2023-01-28T11:13:14.486Z,28.08
2023-01-28T11:15:48.470Z,27.63
2023-01-28T11:18:22.068Z,25.77
2023-01-28T11:23:26.270Z,25.75
2023-01-28T11:26:17.047Z,29.00
2023-01-28T11:28:47.070Z,27.45
2023-01-28T11:31:17.714Z,27.98
2023-01-28T11:33:52.128Z,28.02
2023-01-28T11:36:22.669Z,27.23
2023-01-28T11:38:53.737Z,27.88
2023-01-28T11:41:29.105Z,27.40
2023-01-28T11:43:57.955Z,26.90
2023-01-28T11:46:53.250Z,28.10
2023-01-28T11:49:34.611Z,24.48
2023-01-28T11:52:11.843Z,24.67
2023-01-28T11:54:54.287Z,24.38
2023-01-28T11:57:27.706Z,24.83
2023-01-28T12:00:30.165Z,28.17
2023-01-28T12:03:06.630Z,24.52
2023-01-28T12:05:51.315Z,28.90
2023-01-28T12:08:24.987Z,23.55
2023-01-28T12:13:48.355Z,21.98
2023-01-28T12:16:44.676Z,23.70
2023-01-28T12:19:40.422Z,26.10
2023-01-28T12:22:25.319Z,24.38
2023-01-28T12:25:12.103Z,22.75
2023-01-28T12:27:52.443Z,20.42
2023-01-28T12:30:30.388Z,20.33
2023-01-28T12:33:21.991Z,22.25
2023-01-28T12:36:02.672Z,21.75
2023-01-28T12:38:41.405Z,22.45
2023-01-28T12:41:12.842Z,22.90
2023-01-28T12:43:48.878Z,23.98
2023-01-28T12:46:28.059Z,23.02
2023-01-28T12:49:02.029Z,19.75
2023-01-28T12:51:35.868Z,18.00
2023-01-28T12:54:15.901Z,17.60
2023-01-28T12:56:49.694Z,16.38
2023-01-28T12:59:22.575Z,16.73
2023-01-28T13:01:57.188Z,16.92
2023-01-28T13:04:33.692Z,15.48
2023-01-28T13:07:08.047Z,17.13
2023-01-28T13:09:39.748Z,15.63
2023-01-28T13:12:08.500Z,16.05
2023-01-28T13:14:37.485Z,15.75
2023-01-28T13:17:12.487Z,14.20
2023-01-28T13:19:42.410Z,13.57
2023-01-28T13:22:26.967Z,13.90
2023-01-28T13:24:56.655Z,13.60
2023-01-28T13:27:27.719Z,14.82
2023-01-28T13:30:05.566Z,13.55
2023-01-28T13:32:36.731Z,12.32
2023-01-28T13:35:07.808Z,14.18
2023-01-28T13:37:40.200Z,14.88
2023-01-28T13:40:24.949Z,14.68
2023-01-28T13:43:02.564Z,14.02
2023-01-28T13:45:31.663Z,13.13
2023-01-28T13:48:07.884Z,14.30
2023-01-28T13:50:42.461Z,12.95
2023-01-28T13:53:23.725Z,13.43
2023-01-28T13:56:00.179Z,14.88
2023-01-28T13:59:03.471Z,12.77
2023-01-28T14:02:07.104Z,13.13
2023-01-28T14:05:19.158Z,12.80
2023-01-28T14:08:28.776Z,13.02
2023-01-28T14:11:10.448Z,12.23
2023-01-28T14:13:53.175Z,12.90
2023-01-28T14:16:37.480Z,13.27
2023-01-28T14:19:06.545Z,11.20
2023-01-28T14:21:36.763Z,13.10
2023-01-28T14:24:06.424Z,13.38
2023-01-28T14:26:45.703Z,13.32
2023-01-28T14:29:26.614Z,12.68
2023-01-28T14:31:56.541Z,13.63
2023-01-28T14:34:29.234Z,13.13
2023-01-28T14:37:00.073Z,14.93
2023-01-28T14:39:31.171Z,14.57
2023-01-28T14:42:03.447Z,13.65
2023-01-28T14:44:35.180Z,14.07
2023-01-28T14:47:30.519Z,14.05
2023-01-28T14:50:16.316Z,13.63
2023-01-28T14:53:07.395Z,13.05
2023-01-28T14:55:43.879Z,13.85
2023-01-28T14:58:18.260Z,13.52
2023-01-28T15:00:56.316Z,14.60
2023-01-28T15:03:25.882Z,14.70
2023-01-28T15:06:04.826Z,15.32
2023-01-28T15:08:33.426Z,16.30
2023-01-28T15:11:06.478Z,16.33
2023-01-28T15:13:40.580Z,16.63
2023-01-28T15:16:09.744Z,17.25
2023-01-28T15:18:41.493Z,14.85
2023-01-28T15:21:10.307Z,14.55
2023-01-28T15:23:40.301Z,14.30
2023-01-28T15:26:13.291Z,14.57
2023-01-28T15:28:46.106Z,14.30
2023-01-28T15:31:22.135Z,14.43
2023-01-28T15:34:01.114Z,13.50
2023-01-28T15:36:30.347Z,15.32
2023-01-28T15:38:59.381Z,16.23
2023-01-28T15:41:33.857Z,15.32
2023-01-28T15:44:05.025Z,15.50
2023-01-28T15:46:33.995Z,15.88
2023-01-28T15:49:04.562Z,15.55
2023-01-28T15:51:34.986Z,16.67
2023-01-28T15:54:07.168Z,15.82
2023-01-28T15:56:36.417Z,17.13
2023-01-28T15:59:21.167Z,17.85
2023-01-28T16:01:49.598Z,15.30
2023-01-28T16:04:26.196Z,15.38
2023-01-28T16:06:56.213Z,15.10
2023-01-28T16:09:28.362Z,16.90
2023-01-28T16:12:03.869Z,18.50
2023-01-28T16:14:41.173Z,17.05
2023-01-28T16:17:10.165Z,14.75
2023-01-28T16:19:42.416Z,14.55
2023-01-28T16:22:21.055Z,15.38
2023-01-28T16:24:54.324Z,14.82
2023-01-28T16:27:26.419Z,19.17
2023-01-28T16:29:56.467Z,17.20
2023-01-28T16:32:35.194Z,17.75
2023-01-28T16:35:03.881Z,15.82
2023-01-28T16:37:32.339Z,16.15
2023-01-28T16:40:02.230Z,14.77
2023-01-28T16:42:32.504Z,15.25
2023-01-28T16:45:02.170Z,14.63
2023-01-28T16:47:30.632Z,16.02
2023-01-28T16:49:59.358Z,16.15
2023-01-28T16:52:27.784Z,18.42
2023-01-28T16:54:56.062Z,18.60
2023-01-28T16:57:24.576Z,17.00
2023-01-28T16:59:53.100Z,17.25
2023-01-28T17:02:22.893Z,17.08
2023-01-28T17:04:51.655Z,17.38
2023-01-28T17:07:19.857Z,17.70
2023-01-28T17:09:48.310Z,20.15
2023-01-28T17:12:17.074Z,21.90
2023-01-28T17:14:45.280Z,20.95
2023-01-28T17:17:13.625Z,19.60
2023-01-28T17:19:43.359Z,22.45
2023-01-28T17:22:11.630Z,20.60
2023-01-28T17:24:40.158Z,20.35
2023-01-28T17:27:09.952Z,21.00
2023-01-28T17:29:38.237Z,22.63
2023-01-28T17:32:07.202Z,22.33
2023-01-28T17:34:35.750Z,24.33
2023-01-28T17:37:05.284Z,21.50
2023-01-28T17:39:33.567Z,25.02
2023-01-28T17:42:01.910Z,25.02
2023-01-28T17:44:30.158Z,26.23
2023-01-28T17:46:58.556Z,27.20
2023-01-28T17:49:27.039Z,25.25
2023-01-28T17:51:55.248Z,26.23
2023-01-28T17:54:26.901Z,27.65
2023-01-28T17:56:55.255Z,26.73
2023-01-28T17:59:24.955Z,28.20
2023-01-28T18:01:54.730Z,24.80
2023-01-28T18:04:23.083Z,24.88
2023-01-28T18:06:51.722Z,29.38
2023-01-28T18:09:20.695Z,31.00
2023-01-28T18:11:50.562Z,30.33
2023-01-28T18:14:18.825Z,32.33
2023-01-28T18:16:47.285Z,29.73
2023-01-28T18:19:18.861Z,30.15
2023-01-28T18:21:53.143Z,33.45
2023-01-28T18:24:22.811Z,31.98
2023-01-28T18:26:55.426Z,33.55
2023-01-28T18:29:24.407Z,31.10
2023-01-28T18:31:55.193Z,33.42
2023-01-28T18:34:24.632Z,32.88
2023-01-28T18:36:53.416Z,32.42
2023-01-28T18:39:22.303Z,31.48
2023-01-28T18:41:53.295Z,40.20
2023-01-28T18:44:23.430Z,36.63
2023-01-28T18:46:52.141Z,44.00
2023-01-28T18:49:20.676Z,37.97
2023-01-28T18:51:49.182Z,37.17
2023-01-28T18:54:17.741Z,51.65
2023-01-28T18:56:46.087Z,40.70
2023-01-28T18:59:16.726Z,37.08
2023-01-28T19:01:47.751Z,33.60
2023-01-28T19:04:16.670Z,32.10
2023-01-28T19:06:45.228Z,31.77
2023-01-28T19:09:15.164Z,35.83
2023-01-28T19:11:43.912Z,32.40
2023-01-28T19:14:16.112Z,41.25
2023-01-28T19:16:45.220Z,40.38
2023-01-28T19:19:13.848Z,39.28
2023-01-28T19:21:42.189Z,108.25
2023-01-28T19:24:14.348Z,201.25
2023-01-28T19:26:44.230Z,103.93
2023-01-28T19:29:15.824Z,61.20
2023-01-28T19:31:49.272Z,46.35
2023-01-28T19:34:17.807Z,46.13
2023-01-28T19:36:46.819Z,44.63
2023-01-28T19:39:16.103Z,39.58
2023-01-28T19:41:45.091Z,43.03
2023-01-28T19:44:13.612Z,45.80
2023-01-28T19:46:42.470Z,44.53
2023-01-28T19:49:13.094Z,43.40
2023-01-28T19:51:41.373Z,40.78
2023-01-28T19:54:09.925Z,44.25
2023-01-28T19:56:38.727Z,45.83
2023-01-28T19:59:07.572Z,47.13
2023-01-28T20:01:36.946Z,47.88
2023-01-28T20:04:05.962Z,48.03
2023-01-28T20:06:36.643Z,45.78
2023-01-28T20:09:07.981Z,40.05
2023-01-28T20:11:36.912Z,40.63
2023-01-28T20:14:05.116Z,42.53
2023-01-28T20:16:35.288Z,47.47
2023-01-28T20:19:05.564Z,40.53
2023-01-28T20:21:38.987Z,42.05
2023-01-28T20:24:08.022Z,39.65
2023-01-28T20:26:38.545Z,42.97
2023-01-28T20:29:09.043Z,60.75
2023-01-28T20:31:37.846Z,65.80
2023-01-28T20:34:07.543Z,65.13
2023-01-28T20:36:36.067Z,43.00
2023-01-28T20:39:05.774Z,37.42
2023-01-28T20:41:34.293Z,41.22
2023-01-28T20:44:02.927Z,39.83
2023-01-28T20:46:32.665Z,45.10
2023-01-28T20:49:06.299Z,43.67
2023-01-28T20:54:06.684Z,42.05
2023-01-28T20:56:35.189Z,43.05
2023-01-28T20:59:05.432Z,40.78
2023-01-28T21:01:35.671Z,42.95
2023-01-28T21:04:04.530Z,42.50
2023-01-28T21:06:32.933Z,38.25
2023-01-28T21:09:02.382Z,36.03
2023-01-28T21:11:32.146Z,38.90
2023-01-28T21:14:00.556Z,37.03
2023-01-28T21:16:29.852Z,34.92
2023-01-28T21:18:58.268Z,38.08
2023-01-28T21:21:28.424Z,37.25
2023-01-28T21:24:00.399Z,35.97
2023-01-28T21:26:29.546Z,40.13
2023-01-28T21:28:59.381Z,41.70
2023-01-28T21:31:28.525Z,42.35
2023-01-28T21:33:59.371Z,41.40
2023-01-28T21:36:28.529Z,45.15
2023-01-28T21:38:58.654Z,57.05
2023-01-28T21:41:27.400Z,57.30
2023-01-28T21:43:57.703Z,53.97
2023-01-28T21:46:29.226Z,52.40
2023-01-28T21:48:58.582Z,51.67
2023-01-28T21:51:40.669Z,56.30
2023-01-28T21:54:11.397Z,52.90
2023-01-28T21:56:40.023Z,42.40
2023-01-28T21:59:26.013Z,42.42
2023-01-28T22:01:56.040Z,45.28
2023-01-28T22:04:24.661Z,45.08
2023-01-28T22:06:55.489Z,46.55
2023-01-28T22:09:24.391Z,43.17
2023-01-28T22:11:52.673Z,42.08
2023-01-28T22:14:21.446Z,44.70
2023-01-28T22:16:50.288Z,39.65
2023-01-28T22:19:19.995Z,40.25
2023-01-28T22:21:49.364Z,41.30
2023-01-28T22:24:19.984Z,44.38
2023-01-28T22:26:48.953Z,40.65
2023-01-28T22:29:19.467Z,41.15
2023-01-28T22:31:48.709Z,39.70
2023-01-28T22:34:22.517Z,43.03
2023-01-28T22:36:52.009Z,39.22
2023-01-28T22:39:20.619Z,39.80
2023-01-28T22:41:49.195Z,41.17
2023-01-28T22:44:19.682Z,39.83
2023-01-28T22:46:48.568Z,39.67
2023-01-28T22:49:17.521Z,40.67
2023-01-28T22:51:47.206Z,39.08
2023-01-28T22:54:16.007Z,39.97
2023-01-28T22:56:44.649Z,37.58
2023-01-28T22:59:13.077Z,39.13
2023-01-28T23:01:44.026Z,41.28
2023-01-28T23:04:12.854Z,42.83
2023-01-28T23:06:41.038Z,41.72
2023-01-28T23:09:10.860Z,43.25
2023-01-28T23:11:39.287Z,43.33
2023-01-28T23:14:24.965Z,45.55
2023-01-28T23:17:10.835Z,39.58
2023-01-28T23:19:56.780Z,37.83
2023-01-28T23:22:46.026Z,39.75
2023-01-28T23:25:16.070Z,40.92
2023-01-28T23:27:45.013Z,38.75
2023-01-28T23:30:14.803Z,40.80
2023-01-28T23:32:46.805Z,38.47
2023-01-28T23:35:16.028Z,43.55
2023-01-28T23:37:44.365Z,41.28
2023-01-28T23:40:14.056Z,39.15
2023-01-28T23:42:44.878Z,40.85
2023-01-28T23:45:13.540Z,42.60
2023-01-28T23:47:41.828Z,39.80
2023-01-28T23:50:11.837Z,40.63
2023-01-28T23:52:40.107Z,44.35
2023-01-28T23:55:09.266Z,40.25
2023-01-28T23:57:38.187Z,37.90
